Time;durP1;ratioP1;P1;durP2;ratioP2;P2;SDS_P1;SDS_P2;PMS_P1;PMS_P2;Temp;Humidity;BMP_temperature;BMP_pressure;BME280_temperature;BME280_humidity;BME280_pressure;Samples;Min_cycle;Max_cycle;Signal;HPM_P1;HPM_P2
2022/04/15 00:00:12;;;;;;;9.05;5.75;;;8.00;99.90;;;;;;4991308;28;20044;-60
2022/04/15 00:02:38;;;;;;;8.75;5.10;;;8.10;99.90;;;;;;4990979;28;20033;-60
2022/04/15 00:05:29;;;;;;;9.05;5.63;;;8.00;99.90;;;;;;4991302;28;20038;-60
2022/04/15 00:07:51;;;;;;;6.18;5.55;;;8.00;99.90;;;;;;4991062;28;20038;-60
2022/04/15 00:10:16;;;;;;;6.05;4.78;;;8.00;99.90;;;;;;4990965;28;20031;-59
2022/04/15 00:12:42;;;;;;;6.18;5.07;;;8.00;99.90;;;;;;4989651;28;20041;-57
2022/04/15 00:15:08;;;;;;;9.68;4.95;;;7.90;99.90;;;;;;4991121;28;20113;-59
2022/04/15 00:17:34;;;;;;;8.35;5.63;;;7.90;99.90;;;;;;4990518;28;20031;-58
2022/04/15 00:19:59;;;;;;;9.82;5.30;;;7.90;99.90;;;;;;4990292;28;20034;-59
2022/04/15 00:22:25;;;;;;;8.95;5.32;;;7.90;99.90;;;;;;4990201;28;20026;-58
2022/04/15 00:24:50;;;;;;;6.15;4.93;;;8.00;99.90;;;;;;4990493;28;20168;-59
2022/04/15 00:27:16;;;;;;;8.82;6.15;;;8.00;99.90;;;;;;4990645;28;20483;-59
2022/04/15 00:29:42;;;;;;;6.45;5.20;;;7.90;99.90;;;;;;5004190;22;20046;-56
2022/04/15 00:32:07;;;;;;;8.57;5.60;;;7.90;99.90;;;;;;4989083;28;20090;-56
2022/04/15 00:34:34;;;;;;;10.50;5.07;;;7.90;99.90;;;;;;4990617;28;20022;-53
2022/04/15 00:36:59;;;;;;;9.80;5.53;;;7.90;99.90;;;;;;4988736;28;20055;-56
2022/04/15 00:39:25;;;;;;;8.13;5.38;;;7.90;99.90;;;;;;4990437;28;20390;-52
2022/04/15 00:41:50;;;;;;;8.63;4.95;;;7.90;99.90;;;;;;4990161;28;20030;-55
2022/04/15 00:44:16;;;;;;;10.23;6.00;;;7.90;99.90;;;;;;4990736;28;20396;-55
2022/04/15 00:46:42;;;;;;;10.63;5.70;;;7.90;99.90;;;;;;4989768;28;20109;-55
2022/04/15 00:49:07;;;;;;;7.95;5.60;;;7.90;99.90;;;;;;4990077;28;20063;-52
2022/04/15 00:51:36;;;;;;;7.22;5.03;;;7.90;99.90;;;;;;4987045;28;20018;-51
2022/04/15 00:54:03;;;;;;;7.75;5.55;;;7.80;99.90;;;;;;4988946;28;20480;-55
2022/04/15 00:56:34;;;;;;;8.80;5.13;;;7.90;99.90;;;;;;4989875;28;20033;-50
2022/04/15 00:59:02;;;;;;;9.25;5.15;;;7.80;99.90;;;;;;4988680;28;20041;-53
2022/04/15 01:01:27;;;;;;;6.50;4.75;;;7.80;99.90;;;;;;4988084;28;20038;-52
2022/04/15 01:03:55;;;;;;;9.27;5.60;;;7.80;99.90;;;;;;4988310;28;20093;-51
2022/04/15 01:06:24;;;;;;;8.48;5.50;;;7.80;99.90;;;;;;4990035;28;20030;-53
2022/04/15 01:08:55;;;;;;;8.10;5.03;;;7.80;99.90;;;;;;4972056;28;20110;-51
2022/04/15 01:11:23;;;;;;;9.75;5.55;;;7.90;99.90;;;;;;4986275;28;20030;-56
2022/04/15 01:13:50;;;;;;;9.02;6.15;;;7.80;99.90;;;;;;4990020;28;20109;-52
2022/04/15 01:16:16;;;;;;;11.73;6.05;;;7.80;99.90;;;;;;4990056;28;20053;-53
2022/04/15 01:18:42;;;;;;;9.50;5.22;;;7.90;99.90;;;;;;4990409;28;20026;-53
2022/04/15 01:21:10;;;;;;;5.80;5.20;;;7.80;99.90;;;;;;4989875;28;20436;-51
2022/04/15 01:23:39;;;;;;;8.68;6.65;;;7.80;99.90;;;;;;4989831;28;20058;-55
2022/04/15 01:26:05;;;;;;;11.45;5.55;;;7.80;99.90;;;;;;4989942;28;20088;-53
2022/04/15 01:28:31;;;;;;;8.52;5.07;;;7.80;99.90;;;;;;4990144;28;20026;-55
2022/04/15 01:30:56;;;;;;;8.73;5.68;;;7.80;99.90;;;;;;4990063;28;20566;-52
2022/04/15 01:33:22;;;;;;;11.73;5.65;;;7.80;99.90;;;;;;4990069;28;20022;-52
2022/04/15 01:35:48;;;;;;;9.48;5.45;;;7.80;99.90;;;;;;4994020;28;20026;-52
2022/04/15 01:38:17;;;;;;;8.85;5.40;;;7.80;99.90;;;;;;4992557;28;20031;-50
2022/04/15 01:40:44;;;;;;;7.97;5.03;;;7.80;99.90;;;;;;4989586;28;20133;-52
2022/04/15 01:43:10;;;;;;;8.20;5.35;;;7.80;99.90;;;;;;4993608;28;20041;-53
2022/04/15 01:45:36;;;;;;;9.27;6.05;;;7.70;99.90;;;;;;4993803;28;20045;-54
2022/04/15 01:48:02;;;;;;;9.65;6.43;;;7.70;99.90;;;;;;4993440;28;20148;-51
2022/04/15 01:50:28;;;;;;;10.32;5.93;;;7.80;99.90;;;;;;4993440;28;20023;-50
2022/04/15 01:52:55;;;;;;;12.45;6.70;;;7.80;99.90;;;;;;4993843;28;20555;-57
2022/04/15 01:55:21;;;;;;;8.95;6.45;;;7.80;99.90;;;;;;4991927;28;20104;-57
2022/04/15 01:57:47;;;;;;;10.15;6.85;;;7.80;99.90;;;;;;5001209;28;20062;-52
2022/04/15 02:00:13;;;;;;;9.23;6.25;;;7.80;99.90;;;;;;5007015;28;20037;-53
2022/04/15 02:02:38;;;;;;;9.65;6.35;;;7.80;99.90;;;;;;4993292;28;20030;-52
2022/04/15 02:05:04;;;;;;;10.75;6.78;;;7.80;99.90;;;;;;4993564;28;20027;-55
2022/04/15 02:07:30;;;;;;;11.05;7.25;;;7.80;99.90;;;;;;4993270;28;20113;-52
2022/04/15 02:09:56;;;;;;;9.50;6.85;;;7.80;99.90;;;;;;4993303;28;20110;-51
2022/04/15 02:12:21;;;;;;;11.55;6.97;;;7.80;99.90;;;;;;4993475;28;20496;-51
2022/04/15 02:14:47;;;;;;;13.00;7.10;;;7.80;99.90;;;;;;4993740;28;20035;-51
2022/04/15 02:17:13;;;;;;;17.75;7.65;;;7.80;99.90;;;;;;4993130;28;20105;-54
2022/04/15 02:19:38;;;;;;;13.88;7.30;;;7.80;99.90;;;;;;4992871;28;20094;-55
2022/04/15 02:22:04;;;;;;;11.95;7.28;;;7.80;99.90;;;;;;4992973;28;20118;-50
2022/04/15 02:24:30;;;;;;;12.38;7.28;;;7.80;99.90;;;;;;4993099;28;20030;-52
2022/04/15 02:26:56;;;;;;;9.13;6.75;;;7.70;99.90;;;;;;4991446;28;20520;-52
2022/04/15 02:29:22;;;;;;;11.60;7.20;;;7.70;99.90;;;;;;4992800;28;20101;-53
2022/04/15 02:31:48;;;;;;;11.00;7.60;;;7.70;99.90;;;;;;4992867;28;20106;-52
2022/04/15 02:34:13;;;;;;;10.25;6.95;;;7.70;99.90;;;;;;4992900;28;20033;-56
2022/04/15 02:36:39;;;;;;;11.90;7.63;;;7.70;99.90;;;;;;4992961;28;20038;-53
2022/04/15 02:39:10;;;;;;;14.05;6.88;;;7.70;99.90;;;;;;4992842;28;20034;-52
2022/04/15 02:41:39;;;;;;;8.32;7.07;;;7.70;99.90;;;;;;4992573;28;20026;-51
2022/04/15 02:44:08;;;;;;;13.30;7.30;;;7.70;99.90;;;;;;4992894;28;20034;-50
2022/04/15 02:46:35;;;;;;;10.48;6.97;;;7.60;99.90;;;;;;4991281;28;20043;-52
2022/04/15 02:49:02;;;;;;;9.10;6.93;;;7.60;99.90;;;;;;4992346;28;20038;-53
2022/04/15 02:51:28;;;;;;;10.00;6.55;;;7.50;99.90;;;;;;4992729;28;20061;-55
2022/04/15 02:53:54;;;;;;;8.02;6.72;;;7.50;99.90;;;;;;4992501;28;20037;-53
2022/04/15 02:56:19;;;;;;;7.93;6.57;;;7.50;99.90;;;;;;4992203;28;20030;-53
2022/04/15 02:58:45;;;;;;;12.85;7.57;;;7.50;99.90;;;;;;4992352;28;20353;-51
2022/04/15 03:01:10;;;;;;;9.50;7.72;;;7.50;99.90;;;;;;4992050;28;20042;-55
2022/04/15 03:03:36;;;;;;;10.32;6.63;;;7.50;99.90;;;;;;4992218;28;20057;-55
2022/04/15 03:06:02;;;;;;;8.30;6.82;;;7.40;99.90;;;;;;4992077;28;20405;-53
2022/04/15 03:08:30;;;;;;;9.75;7.28;;;7.40;99.90;;;;;;4992140;28;20070;-54
2022/04/15 03:10:57;;;;;;;8.68;6.75;;;7.40;99.90;;;;;;4991932;28;20030;-53
2022/04/15 03:13:23;;;;;;;10.23;6.18;;;7.40;99.90;;;;;;4991924;28;20034;-52
2022/04/15 03:15:48;;;;;;;10.43;7.65;;;7.40;99.90;;;;;;4991665;28;20424;-52
2022/04/15 03:18:14;;;;;;;13.27;8.02;;;7.40;99.90;;;;;;4992094;28;20069;-53
2022/04/15 03:20:40;;;;;;;9.50;7.65;;;7.40;99.90;;;;;;4991666;28;20062;-52
2022/04/15 03:23:06;;;;;;;13.57;8.15;;;7.40;99.90;;;;;;4991466;28;20034;-56
2022/04/15 03:25:32;;;;;;;13.73;8.50;;;7.50;99.90;;;;;;4991835;28;20022;-53
2022/04/15 03:27:58;;;;;;;12.98;7.60;;;7.40;99.90;;;;;;4992139;28;20030;-54
2022/04/15 03:30:24;;;;;;;13.07;9.27;;;7.40;99.90;;;;;;4991788;28;20038;-51
2022/04/15 03:32:51;;;;;;;13.48;8.27;;;7.40;99.90;;;;;;4991814;28;20091;-52
2022/04/15 03:35:20;;;;;;;10.13;7.65;;;7.40;99.90;;;;;;4990607;28;20022;-52
2022/04/15 03:37:49;;;;;;;11.70;7.95;;;7.40;99.90;;;;;;4991855;28;20034;-53
2022/04/15 03:40:16;;;;;;;10.45;7.53;;;7.40;99.90;;;;;;4991411;28;20465;-52
2022/04/15 03:42:47;;;;;;;12.90;8.55;;;7.30;99.90;;;;;;4991804;28;20059;-53
2022/04/15 03:45:14;;;;;;;14.05;9.35;;;7.30;99.90;;;;;;4991400;28;20034;-51
2022/04/15 03:47:41;;;;;;;14.98;8.93;;;7.30;99.90;;;;;;4990276;28;20492;-52
2022/04/15 03:50:08;;;;;;;15.13;9.55;;;7.40;99.90;;;;;;4989756;28;20396;-52
2022/04/15 03:52:38;;;;;;;16.73;9.82;;;7.30;99.90;;;;;;4991121;28;20442;-54
2022/04/15 03:55:05;;;;;;;14.38;10.48;;;7.30;99.90;;;;;;4991379;28;20026;-54
2022/04/15 03:57:31;;;;;;;14.40;10.18;;;7.30;99.90;;;;;;4990979;28;20651;-54
2022/04/15 03:59:56;;;;;;;14.20;10.63;;;7.30;99.90;;;;;;4991421;28;20030;-55
2022/04/15 04:02:22;;;;;;;15.88;10.88;;;7.30;99.90;;;;;;4991074;28;20129;-56
2022/04/15 04:04:47;;;;;;;16.55;10.27;;;7.30;99.90;;;;;;4991575;28;20500;-54
2022/04/15 04:07:15;;;;;;;17.10;10.52;;;7.30;99.90;;;;;;4991229;28;20038;-51
2022/04/15 04:09:41;;;;;;;20.50;11.55;;;7.40;99.90;;;;;;4991154;28;20114;-54
2022/04/15 04:12:07;;;;;;;19.65;12.88;;;7.40;99.90;;;;;;4990582;28;20121;-55
2022/04/15 04:14:32;;;;;;;15.35;10.95;;;7.40;99.90;;;;;;4990965;28;20030;-53
2022/04/15 04:16:58;;;;;;;18.35;12.10;;;7.40;99.90;;;;;;4990721;28;20030;-53
2022/04/15 04:19:24;;;;;;;15.75;10.85;;;7.40;99.90;;;;;;4990374;28;20495;-54
2022/04/15 04:21:49;;;;;;;17.90;13.15;;;7.40;99.90;;;;;;4990485;28;20034;-50
2022/04/15 04:24:15;;;;;;;16.63;12.13;;;7.40;99.90;;;;;;4990403;28;20477;-51
2022/04/15 04:26:40;;;;;;;19.08;12.07;;;7.40;99.90;;;;;;4990392;28;20037;-52
2022/04/15 04:29:06;;;;;;;20.05;13.27;;;7.50;99.90;;;;;;4990409;28;20022;-54
2022/04/15 04:31:31;;;;;;;22.02;14.20;;;7.50;99.90;;;;;;4990601;28;20030;-51
2022/04/15 04:33:57;;;;;;;22.83;14.57;;;7.40;99.90;;;;;;4990866;28;20022;-52
2022/04/15 04:36:22;;;;;;;23.13;14.27;;;7.40;99.90;;;;;;4989762;28;20128;-55
2022/04/15 04:38:48;;;;;;;18.70;14.88;;;7.40;99.90;;;;;;4990518;28;20058;-54
2022/04/15 04:41:14;;;;;;;23.98;16.23;;;7.40;99.90;;;;;;4990244;28;20084;-52
2022/04/15 04:43:39;;;;;;;23.88;15.43;;;7.50;99.90;;;;;;4990590;28;20045;-53
2022/04/15 04:46:05;;;;;;;26.17;16.25;;;7.40;99.90;;;;;;4990325;28;20035;-53
2022/04/15 04:48:30;;;;;;;26.85;16.48;;;7.40;99.90;;;;;;4989735;28;20061;-51
2022/04/15 04:50:56;;;;;;;25.13;15.63;;;7.40;99.90;;;;;;4989723;28;20027;-53
2022/04/15 04:53:22;;;;;;;24.25;16.75;;;7.40;99.90;;;;;;4989956;28;20080;-51
2022/04/15 04:55:47;;;;;;;25.85;16.02;;;7.50;99.90;;;;;;4990128;28;20046;-55
2022/04/15 04:58:13;;;;;;;27.58;17.17;;;7.50;99.90;;;;;;4990426;28;20027;-55
2022/04/15 05:00:39;;;;;;;25.17;17.08;;;7.50;99.90;;;;;;4990103;28;20038;-54
2022/04/15 05:03:04;;;;;;;26.88;17.75;;;7.50;99.90;;;;;;4988617;28;20030;-51
2022/04/15 05:05:30;;;;;;;28.15;17.73;;;7.50;99.90;;;;;;4990289;28;20061;-55
2022/04/15 05:07:55;;;;;;;24.80;16.80;;;7.60;99.90;;;;;;4990123;28;20034;-53
2022/04/15 05:10:22;;;;;;;26.92;17.38;;;7.50;99.90;;;;;;4989282;28;20026;-54
2022/04/15 05:12:48;;;;;;;31.85;17.85;;;7.50;99.90;;;;;;4989894;28;20026;-56
2022/04/15 05:15:13;;;;;;;28.15;16.63;;;7.50;99.90;;;;;;4990191;28;20485;-56
2022/04/15 05:17:39;;;;;;;22.58;15.52;;;7.50;99.90;;;;;;4990081;28;20041;-53
2022/04/15 05:20:06;;;;;;;28.63;16.80;;;7.50;99.90;;;;;;4990381;28;20022;-51
2022/04/15 05:22:32;;;;;;;28.45;15.57;;;7.50;99.90;;;;;;4990022;28;20100;-55
2022/04/15 05:24:57;;;;;;;26.77;15.32;;;7.50;99.90;;;;;;4988569;28;20034;-54
2022/04/15 05:27:23;;;;;;;24.55;15.45;;;7.50;99.90;;;;;;4989754;28;20030;-53
2022/04/15 05:29:48;;;;;;;30.20;16.17;;;7.50;99.90;;;;;;4988712;28;20053;-55
2022/04/15 05:32:14;;;;;;;24.83;14.27;;;7.50;99.90;;;;;;4989599;28;20378;-56
2022/04/15 05:34:42;;;;;;;26.15;14.70;;;7.50;99.90;;;;;;4990015;28;20026;-53
2022/04/15 05:37:08;;;;;;;24.13;14.93;;;7.50;99.90;;;;;;4989853;28;20467;-56
2022/04/15 05:39:33;;;;;;;27.10;16.13;;;7.50;99.90;;;;;;4989807;28;20081;-50
2022/04/15 05:41:59;;;;;;;30.88;17.10;;;7.50;99.90;;;;;;4989629;28;20030;-55
2022/04/15 05:44:24;;;;;;;23.30;14.32;;;7.50;99.90;;;;;;4989673;28;20030;-52
2022/04/15 05:46:50;;;;;;;26.67;15.13;;;7.50;99.90;;;;;;4990087;28;20030;-54
2022/04/15 05:49:16;;;;;;;25.23;14.60;;;7.60;99.90;;;;;;4989367;28;20499;-53
2022/04/15 05:51:43;;;;;;;22.48;14.50;;;7.60;99.90;;;;;;4989652;28;20019;-51
2022/04/15 05:54:09;;;;;;;27.60;14.65;;;7.60;99.90;;;;;;4988281;28;20085;-55
2022/04/15 05:56:35;;;;;;;27.63;14.90;;;7.60;99.90;;;;;;4989685;28;20034;-56
2022/04/15 05:59:00;;;;;;;21.77;13.65;;;7.60;99.90;;;;;;4990100;28;20093;-53
2022/04/15 06:01:26;;;;;;;26.00;14.95;;;7.60;99.90;;;;;;4988327;28;20062;-53
2022/04/15 06:03:51;;;;;;;26.10;15.07;;;7.60;99.90;;;;;;4989610;28;20030;-55
2022/04/15 06:06:17;;;;;;;26.33;14.73;;;7.60;99.90;;;;;;4989488;28;20060;-55
2022/04/15 06:08:43;;;;;;;26.95;15.63;;;7.60;99.90;;;;;;4989940;28;20033;-52
2022/04/15 06:11:08;;;;;;;23.85;13.18;;;7.60;99.90;;;;;;4989107;28;20022;-52
2022/04/15 06:13:34;;;;;;;25.80;14.50;;;7.70;99.90;;;;;;4989501;28;20045;-51
2022/04/15 06:16:00;;;;;;;24.38;14.05;;;7.70;99.90;;;;;;4989607;28;20408;-54
2022/04/15 06:18:29;;;;;;;22.05;13.68;;;7.70;99.90;;;;;;4989635;28;20022;-52
2022/04/15 06:20:55;;;;;;;22.77;13.43;;;7.70;99.90;;;;;;4990171;28;20065;-55
2022/04/15 06:23:21;;;;;;;28.13;13.85;;;7.70;99.90;;;;;;4992870;28;20054;-52
2022/04/15 06:25:47;;;;;;;20.85;14.35;;;7.70;99.90;;;;;;4993048;28;20037;-49
2022/04/15 06:28:13;;;;;;;22.65;13.93;;;7.80;99.90;;;;;;4992928;28;20030;-53
2022/04/15 06:30:39;;;;;;;26.15;14.05;;;7.80;99.90;;;;;;5008179;22;20121;-56
2022/04/15 06:33:06;;;;;;;25.65;14.25;;;7.80;99.90;;;;;;4991474;28;20440;-53
2022/04/15 06:35:33;;;;;;;26.60;14.75;;;7.80;99.90;;;;;;4993136;28;20027;-56
2022/04/15 06:37:58;;;;;;;26.25;15.00;;;7.80;99.90;;;;;;4991658;28;20038;-53
2022/04/15 06:40:24;;;;;;;25.42;15.73;;;7.80;99.90;;;;;;5001637;28;20025;-55
2022/04/15 06:42:50;;;;;;;27.08;15.45;;;7.80;99.90;;;;;;5011485;28;20041;-52
2022/04/15 06:45:15;;;;;;;26.33;16.08;;;7.80;99.90;;;;;;5012179;28;20038;-55
2022/04/15 06:47:41;;;;;;;27.50;15.63;;;7.80;99.90;;;;;;5012005;28;20088;-55
2022/04/15 06:50:07;;;;;;;27.27;14.32;;;7.80;99.90;;;;;;5010969;28;20357;-53
2022/04/15 06:52:33;;;;;;;28.33;16.40;;;7.80;99.90;;;;;;5011737;28;20030;-54
2022/04/15 06:54:58;;;;;;;27.42;15.10;;;7.80;99.90;;;;;;5010536;28;20029;-56
2022/04/15 06:57:24;;;;;;;30.13;17.15;;;7.90;99.90;;;;;;5011853;28;20030;-55
2022/04/15 06:59:49;;;;;;;25.83;16.35;;;7.80;99.90;;;;;;5011585;28;20064;-57
2022/04/15 07:02:15;;;;;;;22.73;15.13;;;7.90;99.90;;;;;;5010169;28;20026;-54
2022/04/15 07:04:41;;;;;;;29.73;15.52;;;7.90;99.90;;;;;;5011619;28;20026;-53
2022/04/15 07:07:06;;;;;;;35.25;15.50;;;7.90;99.90;;;;;;5011759;28;20389;-52
2022/04/15 07:09:32;;;;;;;26.17;15.98;;;7.90;99.90;;;;;;5011695;28;20045;-53
2022/04/15 07:11:58;;;;;;;24.13;14.65;;;8.00;99.90;;;;;;5008902;28;20471;-53
2022/04/15 07:14:24;;;;;;;28.40;15.18;;;8.00;99.90;;;;;;5010995;28;20029;-51
2022/04/15 07:16:49;;;;;;;22.70;14.15;;;7.90;99.90;;;;;;5011952;28;20518;-53
2022/04/15 07:19:15;;;;;;;23.27;14.32;;;7.90;99.90;;;;;;5012424;28;20041;-56
2022/04/15 07:21:42;;;;;;;25.88;14.75;;;7.90;99.90;;;;;;5011243;28;20034;-56
2022/04/15 07:24:08;;;;;;;20.52;13.98;;;7.90;99.90;;;;;;5011318;28;20113;-53
2022/04/15 07:26:34;;;;;;;18.98;13.93;;;7.90;99.90;;;;;;5011595;28;20054;-54
2022/04/15 07:29:00;;;;;;;20.00;13.07;;;7.90;99.90;;;;;;5010345;28;20428;-56
2022/04/15 07:31:26;;;;;;;23.42;14.73;;;8.00;99.90;;;;;;5010134;28;20404;-52
2022/04/15 07:33:52;;;;;;;26.13;14.75;;;7.90;99.90;;;;;;5011180;28;20511;-54
2022/04/15 07:39:05;;;;;;;24.80;14.20;;;8.00;99.90;;;;;;5011855;28;20040;-54
2022/04/15 07:41:30;;;;;;;23.23;16.08;;;8.00;99.90;;;;;;5011250;28;20416;-55
2022/04/15 07:43:56;;;;;;;23.33;15.50;;;7.90;99.90;;;;;;5011735;28;20037;-55
2022/04/15 07:46:22;;;;;;;25.67;16.15;;;7.90;99.90;;;;;;5011686;28;20029;-57
2022/04/15 07:48:47;;;;;;;25.00;15.45;;;8.00;99.90;;;;;;5011121;28;20022;-53
2022/04/15 07:51:13;;;;;;;27.50;15.90;;;8.00;99.90;;;;;;5011155;28;20480;-55
2022/04/15 07:53:38;;;;;;;23.50;15.00;;;8.00;99.90;;;;;;5011057;28;20056;-55
2022/04/15 07:56:04;;;;;;;26.58;15.38;;;8.00;99.90;;;;;;5011361;28;20021;-55
2022/04/15 07:58:31;;;;;;;24.70;15.57;;;8.00;99.90;;;;;;5011417;28;20052;-54
2022/04/15 08:00:59;;;;;;;24.30;14.50;;;8.00;99.90;;;;;;5009187;28;20117;-55
2022/04/15 08:03:27;;;;;;;19.13;14.48;;;8.10;99.90;;;;;;5010623;28;20030;-56
2022/04/15 08:05:54;;;;;;;21.40;15.68;;;8.20;99.90;;;;;;5009455;28;20022;-54
2022/04/15 08:08:20;;;;;;;19.02;13.27;;;8.20;99.90;;;;;;4995852;28;20026;-53
2022/04/15 08:10:50;;;;;;;20.33;14.02;;;8.20;99.90;;;;;;5008699;28;20101;-55
2022/04/15 08:13:16;;;;;;;24.70;15.25;;;8.30;99.90;;;;;;5006882;28;20040;-52
2022/04/15 08:15:42;;;;;;;25.02;14.75;;;8.30;99.90;;;;;;5010069;28;20500;-56
2022/04/15 08:18:07;;;;;;;21.83;14.63;;;8.30;99.90;;;;;;5009469;28;20034;-58
2022/04/15 08:20:33;;;;;;;23.65;15.50;;;8.30;99.90;;;;;;5010548;28;20044;-57
2022/04/15 08:22:59;;;;;;;22.25;16.27;;;8.20;99.90;;;;;;5010512;28;20100;-56
2022/04/15 08:25:24;;;;;;;21.15;14.20;;;8.20;99.90;;;;;;5010248;28;20061;-55
2022/04/15 08:27:50;;;;;;;20.38;14.57;;;8.20;99.90;;;;;;5010267;28;20026;-53
2022/04/15 08:30:16;;;;;;;20.75;14.20;;;8.20;99.90;;;;;;5010524;28;20036;-54
2022/04/15 08:32:41;;;;;;;21.50;14.95;;;8.30;99.90;;;;;;5010501;28;20022;-54
2022/04/15 08:35:13;;;;;;;20.95;15.10;;;8.30;99.90;;;;;;5008446;28;20030;-53
2022/04/15 08:37:39;;;;;;;25.05;14.95;;;8.30;99.90;;;;;;5010543;28;20026;-56
2022/04/15 08:40:05;;;;;;;21.83;15.00;;;8.30;99.90;;;;;;5010761;28;20060;-54
2022/04/15 08:42:32;;;;;;;20.52;15.15;;;8.30;99.90;;;;;;5010189;28;20033;-54
2022/04/15 08:44:57;;;;;;;23.05;15.38;;;8.30;99.90;;;;;;5009080;28;20030;-57
2022/04/15 08:47:24;;;;;;;23.38;16.42;;;8.30;99.90;;;;;;5009159;28;20065;-57
2022/04/15 08:49:50;;;;;;;18.75;13.55;;;8.30;99.90;;;;;;5009605;28;20484;-56
2022/04/15 08:52:17;;;;;;;20.65;14.98;;;8.30;99.90;;;;;;5010285;28;20026;-55
2022/04/15 08:54:45;;;;;;;19.10;15.02;;;8.30;99.90;;;;;;5010411;28;20030;-57
2022/04/15 08:57:11;;;;;;;22.60;15.60;;;8.40;99.90;;;;;;5010177;28;20048;-55
2022/04/15 08:59:40;;;;;;;19.77;14.05;;;8.50;99.90;;;;;;5009811;28;20037;-55
2022/04/15 09:02:06;;;;;;;19.63;14.77;;;8.50;99.90;;;;;;5009970;28;20032;-55
2022/04/15 09:04:32;;;;;;;24.00;15.13;;;8.60;99.90;;;;;;5009848;28;20030;-55
2022/04/15 09:07:00;;;;;;;20.10;14.77;;;8.60;99.90;;;;;;5010250;28;20029;-53
2022/04/15 09:09:33;;;;;;;23.02;14.68;;;8.70;99.90;;;;;;5010074;28;20382;-55
2022/04/15 09:12:03;;;;;;;21.90;15.23;;;8.70;99.90;;;;;;5009819;28;20018;-55
2022/04/15 09:14:29;;;;;;;23.52;15.77;;;8.60;99.90;;;;;;5010146;28;20555;-57
2022/04/15 09:16:55;;;;;;;27.75;16.10;;;8.60;99.90;;;;;;5009986;28;20033;-57
2022/04/15 09:19:21;;;;;;;22.15;15.40;;;8.50;99.90;;;;;;5009910;28;20030;-57
2022/04/15 09:21:51;;;;;;;26.40;15.52;;;8.60;99.90;;;;;;5009893;28;20100;-57
2022/04/15 09:24:17;;;;;;;22.55;15.13;;;8.60;99.90;;;;;;5009790;28;20025;-57
2022/04/15 09:26:46;;;;;;;23.63;15.35;;;8.60;99.90;;;;;;5009368;28;20029;-56
2022/04/15 09:29:15;;;;;;;21.55;14.80;;;8.50;99.90;;;;;;5010083;28;20109;-53
2022/04/15 09:31:44;;;;;;;23.48;15.45;;;8.60;99.90;;;;;;5009294;28;20041;-56
2022/04/15 09:34:10;;;;;;;22.60;15.57;;;8.60;99.90;;;;;;5008355;28;20034;-54
2022/04/15 09:36:37;;;;;;;20.55;15.13;;;8.70;99.90;;;;;;5009108;28;20083;-52
2022/04/15 09:39:16;;;;;;;23.25;16.00;;;8.70;99.90;;;;;;5009821;28;20117;-58
2022/04/15 09:41:56;;;;;;;26.35;16.38;;;8.70;99.90;;;;;;5008321;28;20099;-54
2022/04/15 09:44:31;;;;;;;21.35;14.30;;;8.70;99.90;;;;;;5009816;28;20026;-54
2022/04/15 09:46:57;;;;;;;24.97;15.90;;;8.70;99.90;;;;;;5009453;28;20369;-52
2022/04/15 09:49:25;;;;;;;22.45;15.43;;;8.80;99.90;;;;;;5009736;28;20686;-57
2022/04/15 09:51:51;;;;;;;24.92;15.10;;;8.90;99.90;;;;;;5010048;28;20534;-55
2022/04/15 09:54:28;;;;;;;28.23;16.38;;;9.00;99.90;;;;;;5009982;28;20424;-51
2022/04/15 09:56:58;;;;;;;20.80;15.13;;;9.00;99.90;;;;;;5014227;28;20058;-55
2022/04/15 09:59:26;;;;;;;21.48;15.60;;;9.10;99.90;;;;;;5014174;28;20028;-56
2022/04/15 10:02:02;;;;;;;22.17;14.30;;;9.20;99.90;;;;;;5013398;28;20034;-53
2022/04/15 10:04:28;;;;;;;21.75;14.30;;;9.20;99.90;;;;;;5013706;28;20065;-56
2022/04/15 10:06:54;;;;;;;20.80;15.40;;;9.20;99.90;;;;;;5011115;28;20455;-55
2022/04/15 10:09:20;;;;;;;20.95;14.20;;;9.20;99.90;;;;;;5013638;28;20030;-52
2022/04/15 10:11:47;;;;;;;18.98;13.68;;;9.20;99.90;;;;;;5012701;28;20535;-57
2022/04/15 10:14:14;;;;;;;19.30;13.77;;;9.20;99.90;;;;;;5013502;28;20025;-55
2022/04/15 10:16:42;;;;;;;20.75;13.43;;;9.20;99.90;;;;;;5012354;28;20524;-53
2022/04/15 10:19:08;;;;;;;21.85;14.43;;;9.10;99.90;;;;;;5013321;28;20113;-53
2022/04/15 10:21:44;;;;;;;19.30;13.18;;;9.10;99.90;;;;;;5011808;28;20079;-54
2022/04/15 10:24:10;;;;;;;19.40;14.93;;;9.20;99.90;;;;;;5012649;28;20033;-54
2022/04/15 10:26:44;;;;;;;24.88;14.23;;;9.20;99.90;;;;;;5012518;28;20033;-57
2022/04/15 10:29:10;;;;;;;18.60;14.10;;;9.10;99.90;;;;;;5010156;28;20152;-56
2022/04/15 10:31:48;;;;;;;21.20;12.80;;;9.10;99.90;;;;;;4996383;28;20033;-53
2022/04/15 10:34:19;;;;;;;18.45;13.38;;;9.10;99.90;;;;;;4993703;28;20023;-54
2022/04/15 10:36:47;;;;;;;16.70;12.80;;;9.10;99.90;;;;;;4995679;28;20026;-55
2022/04/15 10:39:14;;;;;;;19.60;13.43;;;9.20;99.90;;;;;;5012746;28;20033;-57
2022/04/15 10:41:43;;;;;;;19.58;13.30;;;9.20;99.90;;;;;;5012114;28;20377;-53
2022/04/15 10:44:12;;;;;;;15.07;10.90;;;9.20;99.90;;;;;;5012900;28;20030;-53
2022/04/15 10:46:38;;;;;;;19.77;12.60;;;9.10;99.90;;;;;;5012054;28;20026;-55
2022/04/15 10:49:20;;;;;;;18.98;12.10;;;9.10;99.90;;;;;;5012521;28;20084;-57
2022/04/15 10:51:45;;;;;;;18.30;11.50;;;9.10;99.90;;;;;;5012088;28;20412;-55
2022/04/15 10:54:36;;;;;;;18.23;11.02;;;9.10;99.90;;;;;;5011656;28;20021;-53
2022/04/15 10:57:04;;;;;;;15.27;9.90;;;9.10;99.90;;;;;;5009868;28;20393;-54
2022/04/15 11:02:24;;;;;;;14.60;10.02;;;9.10;99.90;;;;;;5010942;28;20076;-52
2022/04/15 11:04:52;;;;;;;16.13;11.75;;;9.10;99.90;;;;;;5011714;28;20018;-55
2022/04/15 11:07:29;;;;;;;17.00;10.63;;;9.10;99.90;;;;;;5010486;28;20018;-54
2022/04/15 11:09:56;;;;;;;21.10;10.77;;;9.10;99.90;;;;;;5010186;28;20248;-56
2022/04/15 11:12:35;;;;;;;17.17;10.65;;;9.10;99.90;;;;;;5007937;28;20045;-54
2022/04/15 11:15:01;;;;;;;13.82;10.23;;;9.00;99.90;;;;;;5012086;28;20030;-55
2022/04/15 11:17:41;;;;;;;17.05;11.52;;;9.10;99.90;;;;;;5011610;28;20022;-55
2022/04/15 11:20:09;;;;;;;16.95;10.77;;;9.10;99.90;;;;;;5012187;28;20029;-56
2022/04/15 11:22:44;;;;;;;16.60;11.05;;;9.20;99.90;;;;;;5010724;28;20022;-53
2022/04/15 11:25:13;;;;;;;20.38;12.25;;;9.10;99.90;;;;;;5011392;28;20029;-54
2022/04/15 11:27:40;;;;;;;18.05;12.65;;;9.10;99.90;;;;;;5011507;28;20030;-54
2022/04/15 11:30:13;;;;;;;16.40;11.88;;;9.20;99.90;;;;;;5010441;28;20113;-52
2022/04/15 11:32:54;;;;;;;20.85;11.45;;;9.20;99.90;;;;;;5011643;28;20022;-54
2022/04/15 11:35:30;;;;;;;17.40;10.98;;;9.30;99.90;;;;;;5012090;28;20506;-52
2022/04/15 11:38:13;;;;;;;16.75;10.15;;;9.30;99.90;;;;;;5011503;28;20101;-52
2022/04/15 11:40:43;;;;;;;19.30;11.43;;;9.40;99.90;;;;;;5011831;28;20037;-53
2022/04/15 11:43:10;;;;;;;14.57;10.55;;;9.30;99.90;;;;;;5011148;28;20045;-57
2022/04/15 11:45:35;;;;;;;16.83;10.23;;;9.30;99.90;;;;;;5011917;28;20092;-56
2022/04/15 11:48:15;;;;;;;18.45;11.18;;;9.30;99.90;;;;;;5011605;28;20157;-57
2022/04/15 11:50:41;;;;;;;13.93;9.30;;;9.30;99.90;;;;;;5011034;28;20037;-55
2022/04/15 11:53:07;;;;;;;14.57;8.80;;;9.30;99.90;;;;;;5011008;28;20663;-52
2022/04/15 11:55:34;;;;;;;12.40;8.90;;;9.30;99.90;;;;;;5011512;28;20097;-52
2022/04/15 11:58:00;;;;;;;9.75;7.70;;;9.30;99.90;;;;;;5011375;28;20044;-52
2022/04/15 12:00:26;;;;;;;10.38;6.75;;;9.30;99.90;;;;;;5011018;28;20056;-52
2022/04/15 12:03:01;;;;;;;9.80;7.03;;;9.30;99.90;;;;;;5010325;28;20473;-53
2022/04/15 12:05:28;;;;;;;10.80;6.78;;;9.20;99.90;;;;;;5010792;28;20503;-54
2022/04/15 12:07:54;;;;;;;11.90;7.30;;;9.20;99.90;;;;;;5010696;28;20061;-54
2022/04/15 12:10:21;;;;;;;8.73;6.53;;;9.20;99.90;;;;;;5009421;28;20099;-54
2022/04/15 12:12:49;;;;;;;8.75;6.05;;;9.30;99.90;;;;;;5010884;28;20029;-53
2022/04/15 12:15:14;;;;;;;8.52;6.10;;;9.30;99.90;;;;;;5010497;28;20544;-55
2022/04/15 12:17:41;;;;;;;9.90;5.80;;;9.30;99.90;;;;;;5010552;28;20036;-54
2022/04/15 12:20:07;;;;;;;8.50;6.57;;;9.40;99.90;;;;;;5010726;28;20025;-52
2022/04/15 12:22:34;;;;;;;9.18;6.82;;;9.50;99.90;;;;;;5010542;28;20056;-55
2022/04/15 12:25:16;;;;;;;8.05;6.18;;;9.50;99.90;;;;;;5010889;28;20022;-57
2022/04/15 12:27:44;;;;;;;8.13;6.57;;;9.60;99.90;;;;;;5010709;28;20030;-54
2022/04/15 12:32:39;;;;;;;7.43;6.50;;;9.50;99.90;;;;;;4963303;28;20071;-54
2022/04/15 12:35:09;;;;;;;14.15;7.20;;;9.50;99.90;;;;;;4969536;28;20082;-54
2022/04/15 12:37:47;;;;;;;11.45;6.97;;;9.40;99.90;;;;;;4985300;28;20121;-53
2022/04/15 12:40:17;;;;;;;8.43;6.18;;;9.40;99.90;;;;;;4970366;28;20045;-54
2022/04/15 12:42:44;;;;;;;8.23;6.55;;;9.40;99.90;;;;;;4970853;28;20097;-54
2022/04/15 12:45:13;;;;;;;11.82;6.82;;;9.40;99.90;;;;;;4971131;28;20035;-54
2022/04/15 12:47:39;;;;;;;11.52;6.68;;;9.30;99.90;;;;;;4970918;28;20508;-52
2022/04/15 12:50:24;;;;;;;11.27;7.00;;;9.30;99.90;;;;;;4971245;28;20030;-53